sensor_id;sensor_type;location;lat;lon;timestamp;temperature;humidity
29551;DHT22;16488;52.396;10.696;2024-02-26T00:01:26;1.20;99.90
29551;DHT22;16488;52.396;10.696;2024-02-26T00:03:52;1.20;99.90
29551;DHT22;16488;52.396;10.696;2024-02-26T00:06:18;1.20;99.90
29551;DHT22;16488;52.396;10.696;2024-02-26T00:08:44;1.20;99.90
29551;DHT22;16488;52.396;10.696;2024-02-26T00:11:09;1.20;99.90
29551;DHT22;16488;52.396;10.696;2024-02-26T00:13:36;1.20;99.90
29551;DHT22;16488;52.396;10.696;2024-02-26T00:16:03;1.20;99.90
29551;DHT22;16488;52.396;10.696;2024-02-26T00:18:28;1.30;99.90
29551;DHT22;16488;52.396;10.696;2024-02-26T00:20:54;1.30;99.90
29551;DHT22;16488;52.396;10.696;2024-02-26T00:23:20;1.30;99.90
29551;DHT22;16488;52.396;10.696;2024-02-26T00:25:45;1.40;99.90
29551;DHT22;16488;52.396;10.696;2024-02-26T00:28:11;1.50;99.90
29551;DHT22;16488;52.396;10.696;2024-02-26T00:30:38;1.50;99.90
29551;DHT22;16488;52.396;10.696;2024-02-26T00:33:04;1.60;99.90
29551;DHT22;16488;52.396;10.696;2024-02-26T00:35:30;1.50;99.90
29551;DHT22;16488;52.396;10.696;2024-02-26T00:37:55;1.60;99.90
29551;DHT22;16488;52.396;10.696;2024-02-26T00:40:21;1.60;99.90
29551;DHT22;16488;52.396;10.696;2024-02-26T00:42:47;1.70;99.90
29551;DHT22;16488;52.396;10.696;2024-02-26T00:45:13;1.70;99.90
29551;DHT22;16488;52.396;10.696;2024-02-26T00:47:39;1.70;99.90
29551;DHT22;16488;52.396;10.696;2024-02-26T00:50:07;1.70;99.90
29551;DHT22;16488;52.396;10.696;2024-02-26T00:52:34;1.80;99.90
29551;DHT22;16488;52.396;10.696;2024-02-26T00:54:59;1.70;99.90
29551;DHT22;16488;52.396;10.696;2024-02-26T00:57:25;1.60;99.90
29551;DHT22;16488;52.396;10.696;2024-02-26T00:59:50;1.70;99.90
29551;DHT22;16488;52.396;10.696;2024-02-26T01:02:16;1.70;99.90
29551;DHT22;16488;52.396;10.696;2024-02-26T01:04:42;1.70;99.90
29551;DHT22;16488;52.396;10.696;2024-02-26T01:07:08;1.70;99.90
29551;DHT22;16488;52.396;10.696;2024-02-26T01:09:34;1.70;99.90
29551;DHT22;16488;52.396;10.696;2024-02-26T01:11:59;1.70;99.90
29551;DHT22;16488;52.396;10.696;2024-02-26T01:14:25;1.70;99.90
29551;DHT22;16488;52.396;10.696;2024-02-26T01:16:51;1.60;99.90
29551;DHT22;16488;52.396;10.696;2024-02-26T01:19:16;1.60;99.90
29551;DHT22;16488;52.396;10.696;2024-02-26T01:21:42;1.50;99.90
29551;DHT22;16488;52.396;10.696;2024-02-26T01:24:07;1.40;99.90
29551;DHT22;16488;52.396;10.696;2024-02-26T01:26:33;1.40;99.90
29551;DHT22;16488;52.396;10.696;2024-02-26T01:28:58;1.40;99.90
29551;DHT22;16488;52.396;10.696;2024-02-26T01:31:24;1.40;99.90
29551;DHT22;16488;52.396;10.696;2024-02-26T01:33:50;1.40;99.90
29551;DHT22;16488;52.396;10.696;2024-02-26T01:36:15;1.30;99.90
29551;DHT22;16488;52.396;10.696;2024-02-26T01:38:41;1.30;99.90
29551;DHT22;16488;52.396;10.696;2024-02-26T01:41:06;1.30;99.90
29551;DHT22;16488;52.396;10.696;2024-02-26T01:43:32;1.20;99.90
29551;DHT22;16488;52.396;10.696;2024-02-26T01:45:58;1.20;99.90
29551;DHT22;16488;52.396;10.696;2024-02-26T01:48:24;1.20;99.90
29551;DHT22;16488;52.396;10.696;2024-02-26T01:50:49;1.20;99.90
29551;DHT22;16488;52.396;10.696;2024-02-26T01:53:16;1.10;99.90
29551;DHT22;16488;52.396;10.696;2024-02-26T01:55:42;1.10;99.90
29551;DHT22;16488;52.396;10.696;2024-02-26T01:58:08;1.10;99.90
29551;DHT22;16488;52.396;10.696;2024-02-26T02:00:34;1.00;99.90
29551;DHT22;16488;52.396;10.696;2024-02-26T02:03:01;0.90;99.90
29551;DHT22;16488;52.396;10.696;2024-02-26T02:05:28;0.90;99.90
29551;DHT22;16488;52.396;10.696;2024-02-26T02:07:54;0.90;99.90
29551;DHT22;16488;52.396;10.696;2024-02-26T02:10:20;0.90;99.90
29551;DHT22;16488;52.396;10.696;2024-02-26T02:12:49;0.90;99.90
29551;DHT22;16488;52.396;10.696;2024-02-26T02:15:14;0.80;99.90
29551;DHT22;16488;52.396;10.696;2024-02-26T02:17:40;0.90;99.90
29551;DHT22;16488;52.396;10.696;2024-02-26T02:20:15;0.90;99.90
29551;DHT22;16488;52.396;10.696;2024-02-26T02:22:41;0.90;99.90
29551;DHT22;16488;52.396;10.696;2024-02-26T02:25:07;0.90;99.90
29551;DHT22;16488;52.396;10.696;2024-02-26T02:27:33;0.80;99.90
29551;DHT22;16488;52.396;10.696;2024-02-26T02:29:59;0.90;99.90
29551;DHT22;16488;52.396;10.696;2024-02-26T02:32:25;0.90;99.90
29551;DHT22;16488;52.396;10.696;2024-02-26T02:34:52;0.90;99.90
29551;DHT22;16488;52.396;10.696;2024-02-26T02:37:17;0.80;99.90
29551;DHT22;16488;52.396;10.696;2024-02-26T02:39:43;0.80;99.90
29551;DHT22;16488;52.396;10.696;2024-02-26T02:42:09;0.80;99.90
29551;DHT22;16488;52.396;10.696;2024-02-26T02:44:35;0.70;99.90
29551;DHT22;16488;52.396;10.696;2024-02-26T02:47:01;0.70;99.90
29551;DHT22;16488;52.396;10.696;2024-02-26T02:49:27;0.80;99.90
29551;DHT22;16488;52.396;10.696;2024-02-26T02:51:52;0.70;99.90
29551;DHT22;16488;52.396;10.696;2024-02-26T02:54:19;0.70;99.90
29551;DHT22;16488;52.396;10.696;2024-02-26T02:56:45;0.60;99.90
29551;DHT22;16488;52.396;10.696;2024-02-26T02:59:11;0.70;99.90
29551;DHT22;16488;52.396;10.696;2024-02-26T03:01:36;0.70;99.90
29551;DHT22;16488;52.396;10.696;2024-02-26T03:04:02;0.70;99.90
29551;DHT22;16488;52.396;10.696;2024-02-26T03:06:27;0.70;99.90
29551;DHT22;16488;52.396;10.696;2024-02-26T03:08:54;0.80;99.90
29551;DHT22;16488;52.396;10.696;2024-02-26T03:11:20;0.80;99.90
29551;DHT22;16488;52.396;10.696;2024-02-26T03:13:46;0.80;99.90
29551;DHT22;16488;52.396;10.696;2024-02-26T03:16:11;0.70;99.90
29551;DHT22;16488;52.396;10.696;2024-02-26T03:18:40;0.70;99.90
29551;DHT22;16488;52.396;10.696;2024-02-26T03:21:06;0.70;99.90
29551;DHT22;16488;52.396;10.696;2024-02-26T03:23:32;0.70;99.90
29551;DHT22;16488;52.396;10.696;2024-02-26T03:26:04;0.60;99.90
29551;DHT22;16488;52.396;10.696;2024-02-26T03:28:30;0.70;99.90
29551;DHT22;16488;52.396;10.696;2024-02-26T03:30:56;0.70;99.90
29551;DHT22;16488;52.396;10.696;2024-02-26T03:33:22;0.70;99.90
29551;DHT22;16488;52.396;10.696;2024-02-26T03:35:47;0.70;99.90
29551;DHT22;16488;52.396;10.696;2024-02-26T03:38:13;0.80;99.90
29551;DHT22;16488;52.396;10.696;2024-02-26T03:40:39;0.80;99.90
29551;DHT22;16488;52.396;10.696;2024-02-26T03:43:04;0.80;99.90
29551;DHT22;16488;52.396;10.696;2024-02-26T03:45:32;0.80;99.90
29551;DHT22;16488;52.396;10.696;2024-02-26T03:47:58;0.70;99.90
29551;DHT22;16488;52.396;10.696;2024-02-26T03:50:24;0.70;99.90
29551;DHT22;16488;52.396;10.696;2024-02-26T03:52:49;0.60;99.90
29551;DHT22;16488;52.396;10.696;2024-02-26T03:55:15;0.60;99.90
29551;DHT22;16488;52.396;10.696;2024-02-26T03:57:41;0.70;99.90
29551;DHT22;16488;52.396;10.696;2024-02-26T04:00:07;0.70;99.90
29551;DHT22;16488;52.396;10.696;2024-02-26T04:02:32;0.70;99.90
29551;DHT22;16488;52.396;10.696;2024-02-26T04:04:58;0.60;99.90
29551;DHT22;16488;52.396;10.696;2024-02-26T04:07:24;0.70;99.90
29551;DHT22;16488;52.396;10.696;2024-02-26T04:09:50;0.70;99.90
29551;DHT22;16488;52.396;10.696;2024-02-26T04:12:15;0.60;99.90
29551;DHT22;16488;52.396;10.696;2024-02-26T04:14:41;0.70;99.90
29551;DHT22;16488;52.396;10.696;2024-02-26T04:17:07;0.80;99.90
29551;DHT22;16488;52.396;10.696;2024-02-26T04:19:32;0.70;99.90
29551;DHT22;16488;52.396;10.696;2024-02-26T04:21:58;0.70;99.90
29551;DHT22;16488;52.396;10.696;2024-02-26T04:24:24;0.70;99.90
29551;DHT22;16488;52.396;10.696;2024-02-26T04:26:50;0.70;99.90
29551;DHT22;16488;52.396;10.696;2024-02-26T04:29:15;0.70;99.90
29551;DHT22;16488;52.396;10.696;2024-02-26T04:31:41;0.70;99.90
29551;DHT22;16488;52.396;10.696;2024-02-26T04:34:08;0.60;99.90
29551;DHT22;16488;52.396;10.696;2024-02-26T04:36:33;0.70;99.90
29551;DHT22;16488;52.396;10.696;2024-02-26T04:38:59;0.70;99.90
29551;DHT22;16488;52.396;10.696;2024-02-26T04:41:25;0.70;99.90
29551;DHT22;16488;52.396;10.696;2024-02-26T04:43:50;0.70;99.90
29551;DHT22;16488;52.396;10.696;2024-02-26T04:46:16;0.80;99.90
29551;DHT22;16488;52.396;10.696;2024-02-26T04:48:41;0.70;99.90
29551;DHT22;16488;52.396;10.696;2024-02-26T04:51:07;0.70;99.90
29551;DHT22;16488;52.396;10.696;2024-02-26T04:53:33;0.80;99.90
29551;DHT22;16488;52.396;10.696;2024-02-26T04:55:58;0.90;99.90
29551;DHT22;16488;52.396;10.696;2024-02-26T04:58:24;0.90;99.90
29551;DHT22;16488;52.396;10.696;2024-02-26T05:00:49;1.00;99.90
29551;DHT22;16488;52.396;10.696;2024-02-26T05:03:15;1.10;99.90
29551;DHT22;16488;52.396;10.696;2024-02-26T05:05:44;1.10;99.90
29551;DHT22;16488;52.396;10.696;2024-02-26T05:08:10;1.10;99.90
29551;DHT22;16488;52.396;10.696;2024-02-26T05:10:37;1.20;99.90
29551;DHT22;16488;52.396;10.696;2024-02-26T05:13:06;1.20;99.90
29551;DHT22;16488;52.396;10.696;2024-02-26T05:15:32;1.20;99.90
29551;DHT22;16488;52.396;10.696;2024-02-26T05:17:57;1.20;99.90
29551;DHT22;16488;52.396;10.696;2024-02-26T05:20:23;1.20;99.90
29551;DHT22;16488;52.396;10.696;2024-02-26T05:22:49;1.20;99.90
29551;DHT22;16488;52.396;10.696;2024-02-26T05:25:15;1.10;99.90
29551;DHT22;16488;52.396;10.696;2024-02-26T05:27:41;1.20;99.90
29551;DHT22;16488;52.396;10.696;2024-02-26T05:30:07;1.20;99.90
29551;DHT22;16488;52.396;10.696;2024-02-26T05:32:33;1.20;99.90
29551;DHT22;16488;52.396;10.696;2024-02-26T05:34:58;1.20;99.90
29551;DHT22;16488;52.396;10.696;2024-02-26T05:37:24;1.10;99.90
29551;DHT22;16488;52.396;10.696;2024-02-26T05:39:49;1.10;99.90
29551;DHT22;16488;52.396;10.696;2024-02-26T05:42:15;1.10;99.90
29551;DHT22;16488;52.396;10.696;2024-02-26T05:44:41;1.10;99.90
29551;DHT22;16488;52.396;10.696;2024-02-26T05:47:06;1.20;99.90
29551;DHT22;16488;52.396;10.696;2024-02-26T05:49:32;1.20;99.90
29551;DHT22;16488;52.396;10.696;2024-02-26T05:51:58;1.20;99.90
29551;DHT22;16488;52.396;10.696;2024-02-26T05:54:24;1.20;99.90
29551;DHT22;16488;52.396;10.696;2024-02-26T05:56:50;1.20;99.90
29551;DHT22;16488;52.396;10.696;2024-02-26T05:59:15;1.30;99.90
29551;DHT22;16488;52.396;10.696;2024-02-26T06:01:41;1.30;99.90
29551;DHT22;16488;52.396;10.696;2024-02-26T06:04:07;1.30;99.90
29551;DHT22;16488;52.396;10.696;2024-02-26T06:06:32;1.30;99.90
29551;DHT22;16488;52.396;10.696;2024-02-26T06:08:58;1.30;99.90
29551;DHT22;16488;52.396;10.696;2024-02-26T06:11:24;1.30;99.90
29551;DHT22;16488;52.396;10.696;2024-02-26T06:13:49;1.40;99.90
29551;DHT22;16488;52.396;10.696;2024-02-26T06:16:15;1.40;99.90
29551;DHT22;16488;52.396;10.696;2024-02-26T06:18:41;1.40;99.90
29551;DHT22;16488;52.396;10.696;2024-02-26T06:21:09;1.50;99.90
29551;DHT22;16488;52.396;10.696;2024-02-26T06:23:36;1.40;99.90
29551;DHT22;16488;52.396;10.696;2024-02-26T06:26:01;1.40;99.90
29551;DHT22;16488;52.396;10.696;2024-02-26T06:28:27;1.50;99.90
29551;DHT22;16488;52.396;10.696;2024-02-26T06:30:55;1.50;99.90
29551;DHT22;16488;52.396;10.696;2024-02-26T06:33:22;1.60;99.90
29551;DHT22;16488;52.396;10.696;2024-02-26T06:35:47;1.60;99.90
29551;DHT22;16488;52.396;10.696;2024-02-26T06:38:13;1.60;99.90
29551;DHT22;16488;52.396;10.696;2024-02-26T06:40:39;1.70;99.90
29551;DHT22;16488;52.396;10.696;2024-02-26T06:43:05;1.80;99.90
29551;DHT22;16488;52.396;10.696;2024-02-26T06:45:31;1.80;99.90
29551;DHT22;16488;52.396;10.696;2024-02-26T06:47:57;1.90;99.90
29551;DHT22;16488;52.396;10.696;2024-02-26T06:50:22;2.00;99.90
29551;DHT22;16488;52.396;10.696;2024-02-26T06:52:48;2.20;99.90
29551;DHT22;16488;52.396;10.696;2024-02-26T06:55:14;2.20;99.90
29551;DHT22;16488;52.396;10.696;2024-02-26T06:57:39;2.30;99.90
29551;DHT22;16488;52.396;10.696;2024-02-26T07:00:05;2.50;99.90
29551;DHT22;16488;52.396;10.696;2024-02-26T07:02:31;2.50;99.90
29551;DHT22;16488;52.396;10.696;2024-02-26T07:04:56;2.50;99.90
29551;DHT22;16488;52.396;10.696;2024-02-26T07:07:24;2.60;99.90
29551;DHT22;16488;52.396;10.696;2024-02-26T07:09:49;2.60;99.90
29551;DHT22;16488;52.396;10.696;2024-02-26T07:12:15;2.70;99.90
29551;DHT22;16488;52.396;10.696;2024-02-26T07:14:46;2.60;99.90
29551;DHT22;16488;52.396;10.696;2024-02-26T07:17:12;2.70;99.90
29551;DHT22;16488;52.396;10.696;2024-02-26T07:19:38;2.70;99.90
29551;DHT22;16488;52.396;10.696;2024-02-26T07:22:03;2.70;99.90
29551;DHT22;16488;52.396;10.696;2024-02-26T07:24:29;2.80;99.90
29551;DHT22;16488;52.396;10.696;2024-02-26T07:26:55;2.90;99.90
29551;DHT22;16488;52.396;10.696;2024-02-26T07:29:21;3.00;99.90
29551;DHT22;16488;52.396;10.696;2024-02-26T07:31:47;3.00;99.90
29551;DHT22;16488;52.396;10.696;2024-02-26T07:34:12;3.10;99.90
29551;DHT22;16488;52.396;10.696;2024-02-26T07:36:38;3.10;99.90
29551;DHT22;16488;52.396;10.696;2024-02-26T07:39:04;3.20;99.90
29551;DHT22;16488;52.396;10.696;2024-02-26T07:41:30;3.20;99.90
29551;DHT22;16488;52.396;10.696;2024-02-26T07:43:55;3.20;99.90
29551;DHT22;16488;52.396;10.696;2024-02-26T07:46:21;3.30;99.90
29551;DHT22;16488;52.396;10.696;2024-02-26T07:48:47;3.40;99.90
29551;DHT22;16488;52.396;10.696;2024-02-26T07:51:13;3.40;99.90
29551;DHT22;16488;52.396;10.696;2024-02-26T07:53:42;3.50;99.90
29551;DHT22;16488;52.396;10.696;2024-02-26T07:56:08;3.50;99.90
29551;DHT22;16488;52.396;10.696;2024-02-26T07:58:34;3.60;99.90
29551;DHT22;16488;52.396;10.696;2024-02-26T08:01:00;3.60;99.90
29551;DHT22;16488;52.396;10.696;2024-02-26T08:03:25;3.70;99.90
29551;DHT22;16488;52.396;10.696;2024-02-26T08:05:51;3.70;99.90
29551;DHT22;16488;52.396;10.696;2024-02-26T08:08:17;3.70;99.90
29551;DHT22;16488;52.396;10.696;2024-02-26T08:10:43;3.80;99.90
29551;DHT22;16488;52.396;10.696;2024-02-26T08:13:08;3.80;99.90
29551;DHT22;16488;52.396;10.696;2024-02-26T08:15:35;3.90;99.90
29551;DHT22;16488;52.396;10.696;2024-02-26T08:18:02;4.00;99.90
29551;DHT22;16488;52.396;10.696;2024-02-26T08:20:29;4.00;99.90
29551;DHT22;16488;52.396;10.696;2024-02-26T08:22:55;4.10;99.90
29551;DHT22;16488;52.396;10.696;2024-02-26T08:25:20;4.20;99.90
29551;DHT22;16488;52.396;10.696;2024-02-26T08:27:46;4.20;99.90
29551;DHT22;16488;52.396;10.696;2024-02-26T08:30:16;4.20;99.90
29551;DHT22;16488;52.396;10.696;2024-02-26T08:32:48;4.30;99.90
29551;DHT22;16488;52.396;10.696;2024-02-26T08:35:14;4.40;99.90
29551;DHT22;16488;52.396;10.696;2024-02-26T08:37:43;4.50;99.90
29551;DHT22;16488;52.396;10.696;2024-02-26T08:40:09;4.50;99.90
29551;DHT22;16488;52.396;10.696;2024-02-26T08:42:34;4.40;99.90
29551;DHT22;16488;52.396;10.696;2024-02-26T08:45:01;4.60;99.90
29551;DHT22;16488;52.396;10.696;2024-02-26T08:47:28;4.60;99.90
29551;DHT22;16488;52.396;10.696;2024-02-26T08:49:54;4.60;99.90
29551;DHT22;16488;52.396;10.696;2024-02-26T08:52:19;4.80;99.90
29551;DHT22;16488;52.396;10.696;2024-02-26T08:54:45;4.80;99.90
29551;DHT22;16488;52.396;10.696;2024-02-26T08:57:10;4.90;99.90
29551;DHT22;16488;52.396;10.696;2024-02-26T08:59:36;4.90;99.90
29551;DHT22;16488;52.396;10.696;2024-02-26T09:02:02;4.90;99.90
29551;DHT22;16488;52.396;10.696;2024-02-26T09:04:27;4.90;99.90
29551;DHT22;16488;52.396;10.696;2024-02-26T09:06:53;4.90;99.90
29551;DHT22;16488;52.396;10.696;2024-02-26T09:09:19;4.90;99.90
29551;DHT22;16488;52.396;10.696;2024-02-26T09:11:45;4.90;99.90
29551;DHT22;16488;52.396;10.696;2024-02-26T09:14:12;4.80;99.90
29551;DHT22;16488;52.396;10.696;2024-02-26T09:16:37;4.90;99.90
29551;DHT22;16488;52.396;10.696;2024-02-26T09:19:03;4.80;99.90
29551;DHT22;16488;52.396;10.696;2024-02-26T09:21:28;4.80;99.90
29551;DHT22;16488;52.396;10.696;2024-02-26T09:23:54;4.90;99.90
29551;DHT22;16488;52.396;10.696;2024-02-26T09:26:20;4.90;99.90
29551;DHT22;16488;52.396;10.696;2024-02-26T09:28:45;4.90;99.90
29551;DHT22;16488;52.396;10.696;2024-02-26T09:31:11;4.90;99.90
29551;DHT22;16488;52.396;10.696;2024-02-26T09:33:37;5.10;99.90
29551;DHT22;16488;52.396;10.696;2024-02-26T09:36:04;5.20;99.90
29551;DHT22;16488;52.396;10.696;2024-02-26T09:38:31;5.40;99.90
29551;DHT22;16488;52.396;10.696;2024-02-26T09:41:02;5.40;99.90
29551;DHT22;16488;52.396;10.696;2024-02-26T09:43:35;5.40;99.90
29551;DHT22;16488;52.396;10.696;2024-02-26T09:46:02;5.40;99.90
29551;DHT22;16488;52.396;10.696;2024-02-26T09:48:28;5.30;99.90
29551;DHT22;16488;52.396;10.696;2024-02-26T09:50:54;5.50;99.90
29551;DHT22;16488;52.396;10.696;2024-02-26T09:53:22;5.60;99.90
29551;DHT22;16488;52.396;10.696;2024-02-26T09:55:48;5.50;99.90
29551;DHT22;16488;52.396;10.696;2024-02-26T09:58:14;5.50;99.90
29551;DHT22;16488;52.396;10.696;2024-02-26T10:00:47;5.70;99.90
29551;DHT22;16488;52.396;10.696;2024-02-26T10:03:16;5.80;99.90
29551;DHT22;16488;52.396;10.696;2024-02-26T10:05:44;5.90;99.90
29551;DHT22;16488;52.396;10.696;2024-02-26T10:08:10;5.90;99.90
29551;DHT22;16488;52.396;10.696;2024-02-26T10:10:36;6.10;99.90
29551;DHT22;16488;52.396;10.696;2024-02-26T10:13:03;6.20;99.90
29551;DHT22;16488;52.396;10.696;2024-02-26T10:15:32;6.20;99.90
29551;DHT22;16488;52.396;10.696;2024-02-26T10:17:57;6.00;99.90
29551;DHT22;16488;52.396;10.696;2024-02-26T10:20:23;6.00;99.90
29551;DHT22;16488;52.396;10.696;2024-02-26T10:22:49;6.00;99.90
29551;DHT22;16488;52.396;10.696;2024-02-26T10:25:17;5.90;99.90
29551;DHT22;16488;52.396;10.696;2024-02-26T10:27:43;6.00;99.90
29551;DHT22;16488;52.396;10.696;2024-02-26T10:30:20;6.10;99.90
29551;DHT22;16488;52.396;10.696;2024-02-26T10:32:47;6.10;99.90
29551;DHT22;16488;52.396;10.696;2024-02-26T10:35:13;6.30;99.90
29551;DHT22;16488;52.396;10.696;2024-02-26T10:37:42;6.30;99.90
29551;DHT22;16488;52.396;10.696;2024-02-26T10:40:14;6.30;99.90
29551;DHT22;16488;52.396;10.696;2024-02-26T10:42:41;6.40;99.90
29551;DHT22;16488;52.396;10.696;2024-02-26T10:45:08;6.40;99.90
29551;DHT22;16488;52.396;10.696;2024-02-26T10:47:35;6.50;99.90
29551;DHT22;16488;52.396;10.696;2024-02-26T10:50:05;6.50;99.90
29551;DHT22;16488;52.396;10.696;2024-02-26T10:52:35;6.60;99.90
29551;DHT22;16488;52.396;10.696;2024-02-26T10:55:05;6.60;99.90
29551;DHT22;16488;52.396;10.696;2024-02-26T11:00:00;6.60;99.90
29551;DHT22;16488;52.396;10.696;2024-02-26T11:02:32;6.50;99.90
29551;DHT22;16488;52.396;10.696;2024-02-26T11:04:59;6.50;99.90
29551;DHT22;16488;52.396;10.696;2024-02-26T11:07:26;6.60;99.90
29551;DHT22;16488;52.396;10.696;2024-02-26T11:09:53;6.70;99.90
29551;DHT22;16488;52.396;10.696;2024-02-26T11:12:20;6.70;99.90
29551;DHT22;16488;52.396;10.696;2024-02-26T11:14:48;6.70;99.90
29551;DHT22;16488;52.396;10.696;2024-02-26T11:17:18;6.80;99.90
29551;DHT22;16488;52.396;10.696;2024-02-26T11:19:45;6.80;99.90
29551;DHT22;16488;52.396;10.696;2024-02-26T11:22:11;6.80;99.90
29551;DHT22;16488;52.396;10.696;2024-02-26T11:24:37;6.80;99.90
29551;DHT22;16488;52.396;10.696;2024-02-26T11:27:07;6.80;99.90
29551;DHT22;16488;52.396;10.696;2024-02-26T11:29:43;6.80;99.90
29551;DHT22;16488;52.396;10.696;2024-02-26T11:32:10;6.90;99.90
29551;DHT22;16488;52.396;10.696;2024-02-26T11:34:36;7.10;99.90
29551;DHT22;16488;52.396;10.696;2024-02-26T11:37:15;7.20;99.90
29551;DHT22;16488;52.396;10.696;2024-02-26T11:39:42;7.20;99.90
29551;DHT22;16488;52.396;10.696;2024-02-26T11:42:08;7.30;99.90
29551;DHT22;16488;52.396;10.696;2024-02-26T11:44:35;7.30;99.90
29551;DHT22;16488;52.396;10.696;2024-02-26T11:47:11;7.40;99.90
29551;DHT22;16488;52.396;10.696;2024-02-26T11:49:37;7.20;99.90
29551;DHT22;16488;52.396;10.696;2024-02-26T11:52:06;7.30;99.90
29551;DHT22;16488;52.396;10.696;2024-02-26T11:54:49;7.30;99.90
29551;DHT22;16488;52.396;10.696;2024-02-26T11:57:51;7.30;99.90
29551;DHT22;16488;52.396;10.696;2024-02-26T12:00:17;7.30;99.90
29551;DHT22;16488;52.396;10.696;2024-02-26T12:02:50;7.40;99.90
29551;DHT22;16488;52.396;10.696;2024-02-26T12:05:20;7.40;99.90
29551;DHT22;16488;52.396;10.696;2024-02-26T12:07:52;7.40;99.90
29551;DHT22;16488;52.396;10.696;2024-02-26T12:10:24;7.50;99.90
29551;DHT22;16488;52.396;10.696;2024-02-26T12:13:13;7.60;99.90
29551;DHT22;16488;52.396;10.696;2024-02-26T12:15:45;7.60;99.90
29551;DHT22;16488;52.396;10.696;2024-02-26T12:18:17;7.70;99.90
29551;DHT22;16488;52.396;10.696;2024-02-26T12:20:44;7.80;99.90
29551;DHT22;16488;52.396;10.696;2024-02-26T12:23:15;7.80;99.90
29551;DHT22;16488;52.396;10.696;2024-02-26T12:25:41;7.90;99.90
29551;DHT22;16488;52.396;10.696;2024-02-26T12:28:09;7.90;99.90
29551;DHT22;16488;52.396;10.696;2024-02-26T12:30:35;8.00;99.90
29551;DHT22;16488;52.396;10.696;2024-02-26T12:33:01;8.10;99.90
29551;DHT22;16488;52.396;10.696;2024-02-26T12:35:28;8.10;99.90
29551;DHT22;16488;52.396;10.696;2024-02-26T12:37:54;8.10;99.90
29551;DHT22;16488;52.396;10.696;2024-02-26T12:40:20;8.20;99.90
29551;DHT22;16488;52.396;10.696;2024-02-26T12:42:46;8.10;99.90
29551;DHT22;16488;52.396;10.696;2024-02-26T12:45:13;8.00;99.90
29551;DHT22;16488;52.396;10.696;2024-02-26T12:47:41;8.10;99.90
29551;DHT22;16488;52.396;10.696;2024-02-26T12:50:08;8.10;99.90
29551;DHT22;16488;52.396;10.696;2024-02-26T12:52:36;8.10;99.90
29551;DHT22;16488;52.396;10.696;2024-02-26T12:55:03;8.10;99.90
29551;DHT22;16488;52.396;10.696;2024-02-26T12:57:32;8.10;99.90
29551;DHT22;16488;52.396;10.696;2024-02-26T12:59:59;8.10;99.90
29551;DHT22;16488;52.396;10.696;2024-02-26T13:02:26;8.00;99.90
29551;DHT22;16488;52.396;10.696;2024-02-26T13:04:52;8.10;99.90
29551;DHT22;16488;52.396;10.696;2024-02-26T13:07:18;8.10;99.90
29551;DHT22;16488;52.396;10.696;2024-02-26T13:09:44;8.10;99.90
29551;DHT22;16488;52.396;10.696;2024-02-26T13:12:09;8.00;99.90
29551;DHT22;16488;52.396;10.696;2024-02-26T13:14:35;8.10;99.90
29551;DHT22;16488;52.396;10.696;2024-02-26T13:17:01;8.10;99.90
29551;DHT22;16488;52.396;10.696;2024-02-26T13:19:27;8.10;99.90
29551;DHT22;16488;52.396;10.696;2024-02-26T13:21:54;8.10;99.90
29551;DHT22;16488;52.396;10.696;2024-02-26T13:24:20;8.20;99.90
29551;DHT22;16488;52.396;10.696;2024-02-26T13:26:46;8.40;99.90
29551;DHT22;16488;52.396;10.696;2024-02-26T13:29:21;8.40;99.90
29551;DHT22;16488;52.396;10.696;2024-02-26T13:31:46;8.30;99.90
29551;DHT22;16488;52.396;10.696;2024-02-26T13:34:23;8.30;99.90
29551;DHT22;16488;52.396;10.696;2024-02-26T13:36:50;8.40;99.90
29551;DHT22;16488;52.396;10.696;2024-02-26T13:39:24;8.40;99.90
29551;DHT22;16488;52.396;10.696;2024-02-26T13:41:50;8.30;99.90
29551;DHT22;16488;52.396;10.696;2024-02-26T13:44:16;8.50;99.90
29551;DHT22;16488;52.396;10.696;2024-02-26T13:46:42;8.40;99.90
29551;DHT22;16488;52.396;10.696;2024-02-26T13:49:09;8.50;99.90
29551;DHT22;16488;52.396;10.696;2024-02-26T13:51:36;8.50;99.90
29551;DHT22;16488;52.396;10.696;2024-02-26T13:54:02;8.50;99.90
29551;DHT22;16488;52.396;10.696;2024-02-26T13:56:28;8.50;99.90
29551;DHT22;16488;52.396;10.696;2024-02-26T13:58:54;8.50;99.90
29551;DHT22;16488;52.396;10.696;2024-02-26T14:01:19;8.50;99.90
29551;DHT22;16488;52.396;10.696;2024-02-26T14:03:45;8.50;99.90
29551;DHT22;16488;52.396;10.696;2024-02-26T14:06:11;8.50;99.90
29551;DHT22;16488;52.396;10.696;2024-02-26T14:08:37;8.50;99.90
29551;DHT22;16488;52.396;10.696;2024-02-26T14:11:02;8.50;99.90
29551;DHT22;16488;52.396;10.696;2024-02-26T14:13:28;8.50;99.90
29551;DHT22;16488;52.396;10.696;2024-02-26T14:15:54;8.50;99.90
29551;DHT22;16488;52.396;10.696;2024-02-26T14:18:19;8.50;99.90
29551;DHT22;16488;52.396;10.696;2024-02-26T14:20:45;8.50;99.90
29551;DHT22;16488;52.396;10.696;2024-02-26T14:23:11;8.50;99.90
29551;DHT22;16488;52.396;10.696;2024-02-26T14:25:36;8.50;99.90
29551;DHT22;16488;52.396;10.696;2024-02-26T14:28:02;8.50;99.90
29551;DHT22;16488;52.396;10.696;2024-02-26T14:30:28;8.40;99.90
29551;DHT22;16488;52.396;10.696;2024-02-26T14:32:54;8.40;99.90
29551;DHT22;16488;52.396;10.696;2024-02-26T14:35:20;8.40;99.90
29551;DHT22;16488;52.396;10.696;2024-02-26T14:37:46;8.40;99.90
29551;DHT22;16488;52.396;10.696;2024-02-26T14:40:13;8.40;99.90
29551;DHT22;16488;52.396;10.696;2024-02-26T14:42:40;8.40;99.90
29551;DHT22;16488;52.396;10.696;2024-02-26T14:45:06;8.40;99.90
29551;DHT22;16488;52.396;10.696;2024-02-26T14:47:35;8.30;99.90
29551;DHT22;16488;52.396;10.696;2024-02-26T14:50:01;8.30;99.90
29551;DHT22;16488;52.396;10.696;2024-02-26T14:52:26;8.30;99.90
29551;DHT22;16488;52.396;10.696;2024-02-26T14:54:52;8.30;99.90
29551;DHT22;16488;52.396;10.696;2024-02-26T14:57:18;8.40;99.90
29551;DHT22;16488;52.396;10.696;2024-02-26T14:59:44;8.30;99.90
29551;DHT22;16488;52.396;10.696;2024-02-26T15:02:10;8.30;99.90
29551;DHT22;16488;52.396;10.696;2024-02-26T15:04:37;8.30;99.90
29551;DHT22;16488;52.396;10.696;2024-02-26T15:07:03;8.30;99.90
29551;DHT22;16488;52.396;10.696;2024-02-26T15:09:29;8.20;99.90
29551;DHT22;16488;52.396;10.696;2024-02-26T15:11:55;8.20;99.90
29551;DHT22;16488;52.396;10.696;2024-02-26T15:14:23;8.20;99.90
29551;DHT22;16488;52.396;10.696;2024-02-26T15:16:49;8.30;99.90
29551;DHT22;16488;52.396;10.696;2024-02-26T15:19:14;8.20;99.90
29551;DHT22;16488;52.396;10.696;2024-02-26T15:21:44;8.20;99.90
29551;DHT22;16488;52.396;10.696;2024-02-26T15:24:10;8.20;99.90
29551;DHT22;16488;52.396;10.696;2024-02-26T15:26:37;8.20;99.90
29551;DHT22;16488;52.396;10.696;2024-02-26T15:29:02;8.10;99.90